Time;durP1;ratioP1;P1;durP2;ratioP2;P2;SDS_P1;SDS_P2;PMS_P1;PMS_P2;Temp;Humidity;BMP_temperature;BMP_pressure;BME280_temperature;BME280_humidity;BME280_pressure;Samples;Min_cycle;Max_cycle;Signal;HPM_P1;HPM_P2
2023/04/20 00:00:00;;;;;;;;;;;21.70;58.70;;;;;;4813370;55;20291;-28
2023/04/20 00:05:00;;;;;;;;;;;21.60;58.60;;;;;;4799111;55;20064;-29
2023/04/20 00:10:02;;;;;;;;;;;21.60;58.60;;;;;;4752529;55;20065;-29
2023/04/20 00:15:03;;;;;;;;;;;21.70;58.60;;;;;;4794222;55;20088;-28
2023/04/20 00:20:04;;;;;;;;;;;21.60;58.50;;;;;;4746584;58;20084;-29
2023/04/20 00:25:05;;;;;;;;;;;21.60;58.50;;;;;;4753096;55;20368;-28
2023/04/20 00:30:07;;;;;;;;;;;21.60;58.50;;;;;;4761104;55;20073;-28
2023/04/20 00:35:11;;;;;;;;;;;21.60;58.50;;;;;;4772022;55;20127;-29
2023/04/20 00:40:11;;;;;;;;;;;21.60;58.40;;;;;;4750060;55;20096;-29
2023/04/20 00:45:12;;;;;;;;;;;21.60;58.40;;;;;;4746300;58;20172;-35
2023/04/20 00:50:13;;;;;;;;;;;21.60;58.50;;;;;;4793971;55;20080;-28
2023/04/20 00:55:14;;;;;;;;;;;21.60;58.40;;;;;;4746349;58;20072;-28
2023/04/20 01:00:15;;;;;;;;;;;21.60;58.30;;;;;;4795180;55;20095;-28
2023/04/20 01:05:16;;;;;;;;;;;21.60;58.30;;;;;;4756924;55;20068;-29
2023/04/20 01:10:17;;;;;;;;;;;21.60;58.30;;;;;;4820004;55;20069;-27
2023/04/20 01:15:17;;;;;;;;;;;21.60;58.30;;;;;;4770354;55;20128;-27
2023/04/20 01:20:21;;;;;;;;;;;21.60;58.20;;;;;;4878675;55;20287;-31
2023/04/20 01:25:22;;;;;;;;;;;21.60;58.20;;;;;;4808301;55;20072;-29
2023/04/20 01:30:23;;;;;;;;;;;21.60;58.30;;;;;;4746190;58;20052;-26
2023/04/20 01:35:23;;;;;;;;;;;21.60;58.20;;;;;;4746445;58;20333;-29
2023/04/20 01:40:24;;;;;;;;;;;21.60;58.10;;;;;;4889785;55;20072;-29
2023/04/20 01:45:25;;;;;;;;;;;21.60;58.10;;;;;;4777465;55;20068;-27
2023/04/20 01:50:25;;;;;;;;;;;21.60;58.10;;;;;;4826593;55;20057;-28
2023/04/20 01:55:29;;;;;;;;;;;21.60;58.00;;;;;;4746563;58;20339;-27
2023/04/20 02:00:30;;;;;;;;;;;21.60;58.00;;;;;;4849075;55;20302;-28
2023/04/20 02:05:30;;;;;;;;;;;21.60;58.00;;;;;;4769170;55;20112;-28
2023/04/20 02:10:31;;;;;;;;;;;21.60;58.60;;;;;;4771993;55;20116;-28
2023/04/20 02:15:32;;;;;;;;;;;21.60;58.00;;;;;;4764486;55;20060;-28
2023/04/20 02:20:32;;;;;;;;;;;21.60;57.90;;;;;;4763686;55;20390;-33
2023/04/20 02:25:35;;;;;;;;;;;21.60;57.90;;;;;;4771263;55;20124;-28
2023/04/20 02:30:35;;;;;;;;;;;21.60;57.80;;;;;;4746014;58;20326;-27
2023/04/20 02:35:36;;;;;;;;;;;21.60;57.80;;;;;;4746439;58;20112;-28
2023/04/20 02:40:37;;;;;;;;;;;21.50;57.70;;;;;;4746915;58;20801;-26
2023/04/20 02:45:37;;;;;;;;;;;21.50;57.70;;;;;;4746849;55;20049;-30
2023/04/20 02:50:38;;;;;;;;;;;21.50;57.90;;;;;;4798176;55;20076;-31
2023/04/20 02:55:38;;;;;;;;;;;21.50;57.70;;;;;;4847890;55;20088;-28
2023/04/20 03:00:39;;;;;;;;;;;21.50;57.70;;;;;;4774850;55;20116;-28
2023/04/20 03:05:40;;;;;;;;;;;21.50;57.60;;;;;;4792910;55;20117;-30
2023/04/20 03:10:41;;;;;;;;;;;21.50;57.60;;;;;;4751456;55;20068;-25
2023/04/20 03:15:42;;;;;;;;;;;21.50;57.60;;;;;;4746581;58;20057;-27
2023/04/20 03:20:43;;;;;;;;;;;21.50;57.60;;;;;;4768194;55;20370;-28
2023/04/20 03:25:45;;;;;;;;;;;21.50;57.60;;;;;;4775624;55;20112;-28
2023/04/20 03:30:45;;;;;;;;;;;21.50;57.60;;;;;;4746376;58;20307;-29
2023/04/20 03:35:46;;;;;;;;;;;21.50;57.70;;;;;;4818878;55;20052;-30
2023/04/20 03:40:47;;;;;;;;;;;21.50;57.80;;;;;;4746658;55;20359;-28
2023/04/20 03:45:48;;;;;;;;;;;21.50;57.80;;;;;;4770209;55;20056;-30
2023/04/20 03:50:49;;;;;;;;;;;21.50;57.90;;;;;;4766393;55;20291;-30
2023/04/20 03:55:49;;;;;;;;;;;21.50;57.80;;;;;;4763914;55;20105;-27
2023/04/20 04:00:50;;;;;;;;;;;21.50;57.80;;;;;;4846354;55;20072;-28
2023/04/20 04:05:51;;;;;;;;;;;21.50;57.80;;;;;;4795138;55;20065;-29
2023/04/20 04:10:51;;;;;;;;;;;21.50;57.90;;;;;;4746606;58;20295;-27
2023/04/20 04:15:52;;;;;;;;;;;21.50;57.80;;;;;;4845670;55;20270;-28
2023/04/20 04:20:53;;;;;;;;;;;21.50;57.90;;;;;;4883693;55;20076;-28
2023/04/20 04:25:56;;;;;;;;;;;21.50;57.90;;;;;;4807297;55;20286;-29
2023/04/20 04:30:56;;;;;;;;;;;21.50;57.90;;;;;;4855853;55;20332;-27
2023/04/20 04:35:57;;;;;;;;;;;21.50;57.90;;;;;;4752914;55;20114;-29
2023/04/20 04:40:58;;;;;;;;;;;21.50;57.90;;;;;;4824489;55;20326;-27
2023/04/20 04:45:58;;;;;;;;;;;21.50;57.80;;;;;;4746194;56;20311;-31
2023/04/20 04:50:59;;;;;;;;;;;21.50;57.80;;;;;;4783268;55;20097;-28
2023/04/20 04:55:59;;;;;;;;;;;21.50;57.80;;;;;;4746615;56;20318;-31
2023/04/20 05:01:00;;;;;;;;;;;21.50;57.80;;;;;;4770796;55;20310;-31
2023/04/20 05:06:01;;;;;;;;;;;21.50;57.80;;;;;;4746272;58;20149;-31
2023/04/20 05:11:01;;;;;;;;;;;21.50;57.80;;;;;;4787134;55;20303;-28
2023/04/20 05:16:02;;;;;;;;;;;21.50;57.80;;;;;;4746446;58;20056;-27
2023/04/20 05:21:03;;;;;;;;;;;21.50;57.70;;;;;;4746523;58;20128;-31
2023/04/20 05:26:04;;;;;;;;;;;21.50;57.70;;;;;;4761492;55;20164;-28
2023/04/20 05:31:06;;;;;;;;;;;21.50;57.70;;;;;;4775920;55;20351;-28
2023/04/20 05:36:08;;;;;;;;;;;21.50;57.70;;;;;;4863894;55;20364;-28
2023/04/20 05:41:09;;;;;;;;;;;21.50;57.60;;;;;;4842650;55;20073;-28
2023/04/20 05:46:10;;;;;;;;;;;21.50;57.60;;;;;;4831522;55;20721;-37
2023/04/20 05:51:11;;;;;;;;;;;21.50;57.60;;;;;;4747085;58;20168;-29
2023/04/20 05:56:12;;;;;;;;;;;21.50;57.60;;;;;;4777752;55;20068;-29
2023/04/20 06:01:13;;;;;;;;;;;21.50;57.60;;;;;;4825243;55;20323;-28
2023/04/20 06:06:14;;;;;;;;;;;21.50;57.60;;;;;;4941417;55;20057;-28
2023/04/20 06:11:15;;;;;;;;;;;21.50;57.60;;;;;;4772609;55;20361;-30
2023/04/20 06:16:15;;;;;;;;;;;21.50;57.50;;;;;;4775452;55;20120;-28
2023/04/20 06:21:16;;;;;;;;;;;21.50;57.60;;;;;;4814779;55;20136;-29
2023/04/20 06:26:17;;;;;;;;;;;21.50;57.50;;;;;;4810947;55;20164;-28
2023/04/20 06:31:18;;;;;;;;;;;21.50;57.40;;;;;;4902752;55;20168;-27
2023/04/20 06:36:18;;;;;;;;;;;21.50;57.40;;;;;;4763657;55;20347;-29
2023/04/20 06:41:19;;;;;;;;;;;21.50;57.30;;;;;;4862629;55;20279;-26
2023/04/20 06:46:20;;;;;;;;;;;21.50;57.20;;;;;;4752620;55;20898;-27
2023/04/20 06:51:21;;;;;;;;;;;21.50;57.20;;;;;;4764062;55;20092;-27
2023/04/20 06:56:21;;;;;;;;;;;21.50;57.30;;;;;;4765570;55;20408;-30
2023/04/20 07:01:22;;;;;;;;;;;21.50;57.30;;;;;;4761388;55;20057;-33
2023/04/20 07:06:24;;;;;;;;;;;21.50;57.30;;;;;;4945714;55;20076;-30
2023/04/20 07:11:24;;;;;;;;;;;21.50;57.20;;;;;;4767484;55;20351;-27
2023/04/20 07:16:25;;;;;;;;;;;21.50;57.20;;;;;;4766719;55;20049;-28
2023/04/20 07:21:26;;;;;;;;;;;21.50;57.20;;;;;;4744434;55;20133;-27
2023/04/20 07:26:26;;;;;;;;;;;21.50;57.20;;;;;;4778841;55;20056;-24
2023/04/20 07:31:27;;;;;;;;;;;21.50;57.30;;;;;;4748646;55;20132;-28
2023/04/20 07:36:28;;;;;;;;;;;21.50;57.20;;;;;;4756463;55;20173;-31
2023/04/20 07:41:32;;;;;;;;;;;21.50;57.20;;;;;;4744836;58;20069;-30
2023/04/20 07:46:32;;;;;;;;;;;21.50;57.30;;;;;;4778492;55;20109;-27
2023/04/20 07:51:33;;;;;;;;;;;21.50;57.30;;;;;;4746787;58;20644;-29
2023/04/20 07:56:33;;;;;;;;;;;21.50;57.40;;;;;;4871032;55;20108;-26
2023/04/20 08:01:34;;;;;;;;;;;21.50;57.30;;;;;;4781299;55;20113;-26
2023/04/20 08:06:35;;;;;;;;;;;21.50;57.40;;;;;;4797815;55;20362;-27
2023/04/20 08:11:37;;;;;;;;;;;21.50;57.40;;;;;;4746016;58;20117;-30
2023/04/20 08:16:37;;;;;;;;;;;21.50;57.50;;;;;;4879531;55;20350;-27
2023/04/20 08:21:39;;;;;;;;;;;21.60;57.50;;;;;;4783979;55;20092;-29
2023/04/20 08:26:42;;;;;;;;;;;21.50;57.60;;;;;;4839631;55;20346;-28
2023/04/20 08:31:42;;;;;;;;;;;21.50;57.50;;;;;;4807714;55;20416;-27
2023/04/20 08:36:43;;;;;;;;;;;21.50;57.50;;;;;;4797374;55;20096;-29
2023/04/20 08:41:45;;;;;;;;;;;21.50;57.60;;;;;;4761443;55;20298;-26
2023/04/20 08:46:47;;;;;;;;;;;21.50;57.50;;;;;;4745755;58;20398;-29
2023/04/20 08:51:48;;;;;;;;;;;21.50;57.50;;;;;;4787222;55;20124;-29
2023/04/20 08:56:48;;;;;;;;;;;21.50;57.50;;;;;;4894122;55;20072;-32
2023/04/20 09:01:49;;;;;;;;;;;21.50;57.60;;;;;;4770144;55;20364;-27
2023/04/20 09:06:50;;;;;;;;;;;21.50;57.60;;;;;;4779530;55;20088;-31
2023/04/20 09:12:06;;;;;;;;;;;21.50;57.60;;;;;;4746479;58;20121;-29
2023/04/20 09:17:06;;;;;;;;;;;21.50;57.60;;;;;;4746096;58;20121;-29
2023/04/20 09:22:07;;;;;;;;;;;21.60;57.60;;;;;;4746640;58;20355;-29
2023/04/20 09:27:18;;;;;;;;;;;21.60;57.60;;;;;;4818089;55;20120;-30
2023/04/20 09:32:28;;;;;;;;;;;21.60;57.70;;;;;;4786157;54;20107;-22
2023/04/20 09:37:29;;;;;;;;;;;21.60;58.20;;;;;;4757726;55;20069;-28
2023/04/20 09:42:31;;;;;;;;;;;21.70;58.40;;;;;;4755731;55;20736;-27
2023/04/20 09:47:34;;;;;;;;;;;21.70;58.50;;;;;;4747545;55;20064;-26
2023/04/20 09:52:36;;;;;;;;;;;21.70;58.60;;;;;;4744990;55;20789;-25
2023/04/20 09:57:38;;;;;;;;;;;21.80;58.80;;;;;;4744489;58;20092;-28
2023/04/20 10:02:39;;;;;;;;;;;21.80;59.10;;;;;;4861530;55;20088;-28
2023/04/20 10:07:39;;;;;;;;;;;21.80;59.20;;;;;;4764400;55;20322;-26
2023/04/20 10:12:50;;;;;;;;;;;21.80;59.20;;;;;;4752730;55;20243;-28
2023/04/20 10:17:53;;;;;;;;;;;21.80;59.20;;;;;;4784405;55;20112;-29
2023/04/20 10:23:04;;;;;;;;;;;21.80;59.20;;;;;;4743876;58;20120;-25
2023/04/20 10:28:09;;;;;;;;;;;21.80;59.30;;;;;;4744681;58;20137;-25
2023/04/20 10:33:11;;;;;;;;;;;21.80;59.20;;;;;;4769400;55;20328;-28
2023/04/20 10:38:12;;;;;;;;;;;21.80;59.20;;;;;;4794654;55;20358;-27
2023/04/20 10:43:22;;;;;;;;;;;21.80;59.10;;;;;;4745133;58;20130;-27
2023/04/20 10:48:23;;;;;;;;;;;21.80;59.10;;;;;;4755291;55;20453;-27
2023/04/20 10:53:25;;;;;;;;;;;21.80;59.10;;;;;;4751067;55;20149;-26
2023/04/20 10:58:25;;;;;;;;;;;21.90;59.20;;;;;;4743968;58;20155;-30
2023/04/20 11:03:27;;;;;;;;;;;21.90;59.80;;;;;;4761502;55;20295;-28
2023/04/20 11:08:38;;;;;;;;;;;21.90;59.40;;;;;;4749999;55;20168;-27
2023/04/20 11:13:42;;;;;;;;;;;21.90;59.50;;;;;;4751197;55;20061;-26
2023/04/20 11:18:55;;;;;;;;;;;21.90;59.50;;;;;;4744425;58;20109;-26
2023/04/20 11:23:56;;;;;;;;;;;22.00;59.70;;;;;;4764022;55;20061;-26
2023/04/20 11:28:57;;;;;;;;;;;22.00;59.80;;;;;;4765945;55;20120;-30
2023/04/20 11:33:57;;;;;;;;;;;21.90;59.70;;;;;;4771453;54;20327;-31
2023/04/20 11:39:12;;;;;;;;;;;21.90;59.70;;;;;;4775764;55;20127;-30
2023/04/20 11:44:14;;;;;;;;;;;21.90;59.70;;;;;;4760121;55;20060;-31
2023/04/20 11:49:16;;;;;;;;;;;21.90;59.70;;;;;;4800445;55;20076;-29
2023/04/20 11:54:20;;;;;;;;;;;21.90;59.70;;;;;;4745252;58;20073;-28
2023/04/20 11:59:21;;;;;;;;;;;21.80;59.50;;;;;;4823832;55;20656;-30
2023/04/20 12:04:22;;;;;;;;;;;21.80;59.40;;;;;;4768514;55;20303;-29
2023/04/20 12:09:22;;;;;;;;;;;21.80;59.40;;;;;;4745494;58;20151;-27
2023/04/20 12:14:23;;;;;;;;;;;21.80;59.50;;;;;;4745941;58;20112;-29
2023/04/20 12:19:24;;;;;;;;;;;21.80;59.90;;;;;;4746641;58;20108;-28
2023/04/20 12:24:25;;;;;;;;;;;21.80;59.20;;;;;;4745873;56;20129;-31
2023/04/20 12:29:25;;;;;;;;;;;21.80;59.30;;;;;;4754757;55;20322;-31
2023/04/20 12:34:26;;;;;;;;;;;21.80;59.20;;;;;;4746226;58;20299;-27
2023/04/20 12:39:27;;;;;;;;;;;21.80;59.20;;;;;;4769493;55;20048;-28
2023/04/20 12:44:28;;;;;;;;;;;21.80;59.20;;;;;;4768580;55;20168;-25
2023/04/20 12:49:28;;;;;;;;;;;21.80;59.20;;;;;;4800503;55;20080;-27
2023/04/20 12:54:29;;;;;;;;;;;21.80;59.10;;;;;;4841427;55;20117;-28
2023/04/20 12:59:29;;;;;;;;;;;21.70;59.10;;;;;;4746779;58;20283;-28
2023/04/20 13:04:30;;;;;;;;;;;21.80;59.10;;;;;;4746623;58;20311;-28
2023/04/20 13:09:31;;;;;;;;;;;21.70;59.00;;;;;;4761262;55;20068;-29
2023/04/20 13:14:31;;;;;;;;;;;21.70;59.10;;;;;;4746318;58;20163;-29
2023/04/20 13:19:32;;;;;;;;;;;21.70;58.90;;;;;;4746314;58;20085;-30
2023/04/20 13:24:33;;;;;;;;;;;21.70;58.90;;;;;;4748091;55;20124;-28
2023/04/20 13:29:33;;;;;;;;;;;21.70;58.90;;;;;;4749263;55;20307;-30
2023/04/20 13:34:34;;;;;;;;;;;21.70;58.80;;;;;;4764899;55;20056;-29
2023/04/20 13:39:34;;;;;;;;;;;21.70;58.80;;;;;;4803412;55;20155;-30
2023/04/20 13:44:35;;;;;;;;;;;21.70;58.80;;;;;;4752713;55;20104;-27
2023/04/20 13:49:36;;;;;;;;;;;21.70;58.80;;;;;;4745482;58;20069;-27
2023/04/20 13:54:36;;;;;;;;;;;21.70;58.80;;;;;;4778404;55;20116;-30
2023/04/20 13:59:38;;;;;;;;;;;21.70;58.80;;;;;;4756717;55;20120;-31
2023/04/20 14:04:39;;;;;;;;;;;21.70;58.70;;;;;;4746495;58;20315;-29
2023/04/20 14:09:39;;;;;;;;;;;21.70;58.70;;;;;;4745460;58;20064;-31
2023/04/20 14:14:40;;;;;;;;;;;21.70;58.70;;;;;;4773361;55;20149;-31
2023/04/20 14:19:41;;;;;;;;;;;21.70;58.70;;;;;;4783468;55;20060;-31
2023/04/20 14:24:44;;;;;;;;;;;21.70;58.70;;;;;;4746663;58;20052;-33
2023/04/20 14:29:44;;;;;;;;;;;21.70;58.70;;;;;;4818156;55;20338;-28
2023/04/20 14:34:45;;;;;;;;;;;21.70;58.60;;;;;;4802418;55;20068;-28
2023/04/20 14:39:46;;;;;;;;;;;21.70;58.70;;;;;;4766183;55;20056;-30
2023/04/20 14:44:47;;;;;;;;;;;21.70;58.60;;;;;;4755136;55;20064;-27
2023/04/20 14:49:48;;;;;;;;;;;21.70;58.50;;;;;;4752334;55;20323;-27
2023/04/20 14:54:48;;;;;;;;;;;21.70;58.50;;;;;;4925957;55;20112;-33
2023/04/20 14:59:49;;;;;;;;;;;21.70;58.50;;;;;;4773128;55;20347;-31
2023/04/20 15:04:50;;;;;;;;;;;21.70;58.50;;;;;;4837997;55;20072;-31
2023/04/20 15:09:51;;;;;;;;;;;21.70;58.50;;;;;;4776012;55;20367;-29
2023/04/20 15:14:51;;;;;;;;;;;21.70;58.50;;;;;;4746435;58;20279;-28
2023/04/20 15:19:52;;;;;;;;;;;21.70;58.50;;;;;;4758072;55;20064;-28
2023/04/20 15:24:53;;;;;;;;;;;21.70;58.50;;;;;;4746428;58;20076;-30
2023/04/20 15:29:53;;;;;;;;;;;21.70;58.40;;;;;;4793562;55;20343;-30
2023/04/20 15:34:54;;;;;;;;;;;21.70;58.40;;;;;;4746504;58;20088;-30
2023/04/20 15:39:55;;;;;;;;;;;21.70;58.50;;;;;;4762948;55;20108;-27
2023/04/20 15:44:55;;;;;;;;;;;21.70;58.30;;;;;;4824177;55;20184;-30
2023/04/20 15:50:00;;;;;;;;;;;21.70;58.30;;;;;;4913635;55;20108;-32
2023/04/20 15:55:00;;;;;;;;;;;21.70;58.30;;;;;;4883548;55;20661;-28
2023/04/20 16:00:03;;;;;;;;;;;21.70;58.30;;;;;;4766407;55;20116;-27
2023/04/20 16:05:04;;;;;;;;;;;21.70;58.30;;;;;;4746618;58;20355;-27
2023/04/20 16:10:06;;;;;;;;;;;21.70;58.20;;;;;;4745668;55;20112;-29
2023/04/20 16:15:07;;;;;;;;;;;21.70;58.20;;;;;;4752822;55;20343;-28
2023/04/20 16:20:08;;;;;;;;;;;21.70;58.10;;;;;;4749370;55;20128;-30
2023/04/20 16:25:11;;;;;;;;;;;21.70;58.10;;;;;;4746239;55;20311;-29
2023/04/20 16:30:12;;;;;;;;;;;21.70;58.10;;;;;;4745643;58;20358;-24
2023/04/20 16:35:13;;;;;;;;;;;21.70;58.10;;;;;;4802635;55;20310;-27
2023/04/20 16:40:14;;;;;;;;;;;21.70;58.00;;;;;;4749366;55;20099;-29
2023/04/20 16:45:15;;;;;;;;;;;21.70;58.00;;;;;;4746527;58;20064;-26
2023/04/20 16:50:18;;;;;;;;;;;21.70;58.00;;;;;;4789471;55;20060;-29
2023/04/20 16:55:19;;;;;;;;;;;21.70;58.00;;;;;;4833728;55;20343;-30
2023/04/20 17:00:20;;;;;;;;;;;21.70;58.00;;;;;;4746244;58;20302;-31
2023/04/20 17:05:21;;;;;;;;;;;21.70;57.90;;;;;;4746090;58;20149;-29
2023/04/20 17:10:21;;;;;;;;;;;21.70;57.90;;;;;;4779561;55;20336;-28
2023/04/20 17:15:22;;;;;;;;;;;21.70;57.90;;;;;;4747412;55;20124;-29
2023/04/20 17:20:23;;;;;;;;;;;21.70;57.80;;;;;;4748773;55;20327;-33
2023/04/20 17:25:23;;;;;;;;;;;21.70;57.80;;;;;;4745966;58;20068;-28
2023/04/20 17:30:24;;;;;;;;;;;21.70;57.80;;;;;;4826116;55;20113;-34
2023/04/20 17:35:25;;;;;;;;;;;21.70;57.70;;;;;;4746367;58;20105;-27
2023/04/20 17:40:26;;;;;;;;;;;21.70;57.70;;;;;;4757279;55;20064;-33
2023/04/20 17:45:26;;;;;;;;;;;21.70;57.60;;;;;;4747148;55;20395;-30
2023/04/20 17:50:27;;;;;;;;;;;21.70;57.60;;;;;;4785961;55;20057;-29
2023/04/20 17:55:28;;;;;;;;;;;21.70;57.60;;;;;;4746333;58;20052;-30
2023/04/20 18:00:28;;;;;;;;;;;21.70;57.50;;;;;;4760813;55;20132;-30
2023/04/20 18:05:32;;;;;;;;;;;21.70;57.50;;;;;;4746347;58;20072;-28
2023/04/20 18:10:32;;;;;;;;;;;21.80;57.60;;;;;;4763409;55;20334;-29
2023/04/20 18:15:33;;;;;;;;;;;21.70;57.40;;;;;;4921388;55;20068;-29
2023/04/20 18:20:34;;;;;;;;;;;21.70;57.30;;;;;;4776411;55;20104;-29
2023/04/20 18:25:34;;;;;;;;;;;21.70;57.30;;;;;;4818690;55;20290;-28
2023/04/20 18:30:35;;;;;;;;;;;21.70;57.30;;;;;;4907391;55;20153;-29
2023/04/20 18:35:36;;;;;;;;;;;21.70;57.30;;;;;;4746333;58;20106;-26
2023/04/20 18:40:36;;;;;;;;;;;21.70;57.30;;;;;;4795572;55;20143;-30
2023/04/20 18:45:37;;;;;;;;;;;21.70;57.20;;;;;;4787637;55;20104;-30
2023/04/20 18:50:38;;;;;;;;;;;21.70;57.20;;;;;;4753363;55;20343;-26
2023/04/20 18:55:38;;;;;;;;;;;21.70;57.20;;;;;;4861642;55;20378;-32
2023/04/20 19:00:39;;;;;;;;;;;21.70;57.20;;;;;;4840639;55;20255;-29
2023/04/20 19:05:40;;;;;;;;;;;21.70;57.10;;;;;;4758941;55;20117;-30
2023/04/20 19:10:40;;;;;;;;;;;21.70;57.00;;;;;;4809752;55;20363;-30
2023/04/20 19:15:41;;;;;;;;;;;21.70;57.00;;;;;;4751218;55;20064;-31
2023/04/20 19:20:42;;;;;;;;;;;21.70;57.00;;;;;;4746799;58;20117;-29
2023/04/20 19:25:42;;;;;;;;;;;21.70;57.00;;;;;;4855027;55;20131;-27
2023/04/20 19:30:43;;;;;;;;;;;21.70;57.00;;;;;;4745850;58;20270;-27
2023/04/20 19:35:49;;;;;;;;;;;21.70;56.90;;;;;;4746666;58;20105;-30
2023/04/20 19:40:50;;;;;;;;;;;21.70;56.90;;;;;;4746849;55;20324;-28
2023/04/20 19:45:50;;;;;;;;;;;21.70;56.90;;;;;;4825600;55;20112;-29
2023/04/20 19:50:51;;;;;;;;;;;21.70;56.90;;;;;;4745076;55;20307;-29
2023/04/20 19:55:52;;;;;;;;;;;21.70;56.90;;;;;;4746784;58;20294;-29
2023/04/20 20:00:52;;;;;;;;;;;21.70;56.80;;;;;;4756327;55;20063;-27
2023/04/20 20:05:53;;;;;;;;;;;21.70;56.90;;;;;;4746732;58;20362;-31
2023/04/20 20:10:53;;;;;;;;;;;21.70;56.80;;;;;;4800355;55;21221;-30
2023/04/20 20:15:54;;;;;;;;;;;21.70;56.70;;;;;;4840133;55;20116;-31
2023/04/20 20:20:55;;;;;;;;;;;21.70;56.70;;;;;;4755073;55;20113;-28
2023/04/20 20:25:55;;;;;;;;;;;21.70;56.70;;;;;;4794572;55;20335;-31
2023/04/20 20:30:56;;;;;;;;;;;21.70;56.60;;;;;;4772642;55;20068;-29
2023/04/20 20:35:57;;;;;;;;;;;21.70;56.60;;;;;;4746297;58;20096;-29
2023/04/20 20:40:57;;;;;;;;;;;21.70;56.70;;;;;;4811552;55;20080;-29
2023/04/20 20:45:58;;;;;;;;;;;21.70;56.60;;;;;;4767868;55;20084;-28
2023/04/20 20:50:59;;;;;;;;;;;21.70;56.60;;;;;;4815748;55;20136;-31
2023/04/20 20:55:59;;;;;;;;;;;21.70;56.50;;;;;;4752182;55;20107;-28
2023/04/20 21:01:00;;;;;;;;;;;21.70;56.50;;;;;;4746479;58;20404;-30
2023/04/20 21:06:01;;;;;;;;;;;21.70;56.50;;;;;;4781422;55;20343;-31
2023/04/20 21:11:02;;;;;;;;;;;21.70;56.40;;;;;;4752072;55;20099;-29
2023/04/20 21:16:03;;;;;;;;;;;21.70;56.40;;;;;;4777515;55;20362;-32
2023/04/20 21:21:04;;;;;;;;;;;21.70;56.40;;;;;;4816085;55;20057;-27
2023/04/20 21:26:05;;;;;;;;;;;21.70;56.40;;;;;;4793782;55;20064;-28
2023/04/20 21:31:05;;;;;;;;;;;21.70;56.40;;;;;;4753865;55;20136;-29
2023/04/20 21:36:06;;;;;;;;;;;21.70;56.40;;;;;;4763097;55;20295;-29
2023/04/20 21:41:07;;;;;;;;;;;21.70;56.40;;;;;;4755056;55;20112;-30
2023/04/20 21:46:08;;;;;;;;;;;21.70;56.40;;;;;;4777919;55;20240;-29
2023/04/20 21:51:13;;;;;;;;;;;21.70;56.40;;;;;;4789393;55;20068;-29
2023/04/20 21:56:13;;;;;;;;;;;21.70;56.30;;;;;;4765193;55;20084;-29
2023/04/20 22:01:14;;;;;;;;;;;21.70;56.30;;;;;;4762823;55;20175;-30
2023/04/20 22:06:15;;;;;;;;;;;21.70;56.30;;;;;;4746054;58;20100;-32
2023/04/20 22:11:15;;;;;;;;;;;21.70;56.40;;;;;;4746000;58;20824;-31
2023/04/20 22:16:19;;;;;;;;;;;21.70;56.30;;;;;;4875878;55;20566;-31
2023/04/20 22:21:20;;;;;;;;;;;21.70;56.30;;;;;;4782720;55;20283;-28
2023/04/20 22:26:21;;;;;;;;;;;21.70;56.30;;;;;;4798427;55;20152;-29
2023/04/20 22:31:21;;;;;;;;;;;21.70;56.30;;;;;;4746266;58;20116;-28
2023/04/20 22:36:22;;;;;;;;;;;21.70;56.30;;;;;;4746611;55;20403;-29
2023/04/20 22:41:23;;;;;;;;;;;21.70;56.30;;;;;;4746054;58;20323;-30
2023/04/20 22:46:25;;;;;;;;;;;21.70;56.30;;;;;;4746830;58;20315;-28
2023/04/20 22:51:27;;;;;;;;;;;21.70;56.30;;;;;;4746750;58;20092;-31
2023/04/20 22:56:28;;;;;;;;;;;21.70;56.20;;;;;;4746625;58;20096;-28
2023/04/20 23:01:29;;;;;;;;;;;21.70;56.20;;;;;;4840780;55;20068;-28
2023/04/20 23:06:30;;;;;;;;;;;21.70;56.20;;;;;;4760269;55;20052;-31
2023/04/20 23:11:37;;;;;;;;;;;21.70;56.20;;;;;;4773358;55;20274;-29
2023/04/20 23:16:38;;;;;;;;;;;21.70;56.20;;;;;;4748129;55;20298;-29
2023/04/20 23:21:39;;;;;;;;;;;21.70;56.20;;;;;;4746467;58;20330;-30
2023/04/20 23:26:39;;;;;;;;;;;21.70;56.10;;;;;;4779654;55;20108;-30
2023/04/20 23:31:40;;;;;;;;;;;21.70;56.20;;;;;;4776824;55;20315;-28
2023/04/20 23:36:41;;;;;;;;;;;21.70;56.20;;;;;;4746605;58;20327;-29
2023/04/20 23:41:41;;;;;;;;;;;21.70;56.10;;;;;;4796349;55;20064;-31
2023/04/20 23:46:42;;;;;;;;;;;21.70;56.20;;;;;;4763121;55;20318;-30
2023/04/20 23:51:43;;;;;;;;;;;21.70;56.10;;;;;;4746385;58;20068;-31
2023/04/20 23:56:43;;;;;;;;;;;21.70;56.10;;;;;;4780646;55;20108;-29
